createdAt,value
2023-02-02T00:04:46.866Z,2.43
2023-02-02T00:14:53.312Z,2.44
2023-02-02T00:24:59.637Z,2.25
2023-02-02T00:35:06.030Z,2.19
2023-02-02T00:45:18.288Z,2.07
2023-02-02T00:55:25.272Z,2.02
2023-02-02T01:05:32.967Z,2.14
2023-02-02T01:15:39.374Z,2.20
2023-02-02T01:25:46.949Z,2.13
2023-02-02T01:35:55.602Z,2.24
2023-02-02T01:46:02.085Z,2.36
2023-02-02T01:56:09.582Z,2.40
2023-02-02T02:06:20.360Z,2.45
2023-02-02T02:16:58.906Z,2.43
2023-02-02T02:27:22.870Z,2.52
2023-02-02T02:37:40.716Z,2.54
2023-02-02T02:47:46.217Z,2.55
2023-02-02T02:58:15.117Z,2.59
2023-02-02T03:08:21.352Z,2.67
2023-02-02T03:18:32.018Z,2.74
2023-02-02T03:28:38.546Z,2.82
2023-02-02T03:38:44.850Z,2.86
2023-02-02T03:48:51.283Z,2.86
2023-02-02T03:58:57.635Z,2.82
2023-02-02T04:09:04.272Z,2.77
2023-02-02T04:19:10.877Z,2.82
2023-02-02T04:29:17.274Z,2.82
2023-02-02T04:39:23.614Z,2.82
2023-02-02T04:49:29.944Z,2.92
2023-02-02T04:59:36.197Z,2.84
2023-02-02T05:09:42.487Z,2.94
2023-02-02T05:19:48.767Z,2.91
2023-02-02T05:29:55.107Z,2.91
2023-02-02T05:40:01.404Z,3.17
2023-02-02T05:50:08.137Z,3.24
2023-02-02T06:00:15.041Z,3.20
2023-02-02T06:10:21.596Z,3.12
2023-02-02T06:20:28.137Z,2.96
2023-02-02T06:30:34.514Z,2.85
2023-02-02T06:40:41.378Z,2.89
2023-02-02T06:50:47.643Z,2.79
2023-02-02T07:00:54.039Z,2.68
2023-02-02T07:11:12.859Z,2.64
2023-02-02T07:21:25.913Z,2.70
2023-02-02T07:31:35.583Z,2.71
2023-02-02T07:41:42.556Z,2.83
2023-02-02T07:51:50.424Z,2.97
2023-02-02T08:01:57.124Z,2.84
2023-02-02T08:12:03.572Z,2.79
2023-02-02T08:22:10.431Z,2.96
2023-02-02T08:32:16.805Z,2.82
2023-02-02T08:42:23.111Z,2.86
2023-02-02T08:52:29.478Z,3.10
2023-02-02T09:02:35.909Z,3.08
2023-02-02T09:12:42.266Z,2.97
2023-02-02T09:22:48.902Z,2.90
2023-02-02T09:32:55.261Z,2.87
2023-02-02T09:43:29.430Z,2.67
2023-02-02T09:53:54.660Z,2.79
2023-02-02T10:04:13.719Z,2.99
2023-02-02T10:14:26.248Z,3.32
2023-02-02T10:24:33.192Z,3.64
2023-02-02T10:34:43.410Z,3.56
2023-02-02T10:45:11.617Z,3.43
2023-02-02T10:55:33.820Z,3.34
2023-02-02T11:05:59.089Z,3.10
2023-02-02T11:16:17.290Z,3.78
2023-02-02T11:26:25.710Z,3.75
2023-02-02T11:36:32.087Z,4.56
2023-02-02T11:46:39.650Z,4.39
2023-02-02T11:56:51.510Z,4.36
2023-02-02T12:06:58.253Z,4.62
2023-02-02T12:17:46.421Z,4.35
2023-02-02T12:27:55.506Z,4.20
2023-02-02T12:38:23.260Z,4.32
2023-02-02T12:48:47.276Z,4.15
2023-02-02T12:59:16.293Z,4.41
2023-02-02T13:09:22.558Z,4.38
2023-02-02T13:19:38.807Z,4.42
2023-02-02T13:29:48.339Z,4.75
2023-02-02T13:39:59.024Z,5.26
2023-02-02T13:50:13.325Z,5.28
2023-02-02T14:00:20.060Z,4.92
2023-02-02T14:10:29.226Z,4.92
2023-02-02T14:20:55.920Z,4.90
2023-02-02T14:31:28.343Z,4.95
2023-02-02T14:42:16.899Z,4.73
2023-02-02T14:52:24.406Z,4.72
2023-02-02T15:02:30.683Z,4.81
2023-02-02T15:12:46.320Z,4.62
2023-02-02T15:23:02.055Z,4.65
2023-02-02T15:33:19.365Z,4.43
2023-02-02T15:43:28.274Z,4.19
2023-02-02T15:53:47.531Z,4.21
2023-02-02T16:03:56.094Z,4.09
2023-02-02T16:14:08.304Z,3.96
2023-02-02T16:24:22.719Z,3.94
2023-02-02T16:34:41.542Z,3.83
2023-02-02T16:44:50.060Z,3.81
2023-02-02T16:54:57.758Z,3.87
2023-02-02T17:05:12.158Z,3.74
2023-02-02T17:15:18.574Z,3.80
2023-02-02T17:25:34.702Z,3.71
2023-02-02T17:35:53.840Z,3.49
2023-02-02T17:46:02.473Z,3.59
2023-02-02T17:56:09.029Z,3.50
2023-02-02T18:06:15.572Z,3.12
2023-02-02T18:16:23.581Z,2.74
2023-02-02T18:26:30.310Z,2.59
2023-02-02T18:36:37.395Z,2.52
2023-02-02T18:46:44.004Z,2.45
2023-02-02T18:56:50.565Z,2.47
2023-02-02T19:07:15.636Z,2.52
2023-02-02T19:17:23.549Z,2.55
2023-02-02T19:27:31.480Z,2.61
2023-02-02T19:37:40.335Z,2.55
2023-02-02T19:47:46.882Z,2.58
2023-02-02T19:58:02.704Z,2.49
2023-02-02T20:08:21.115Z,2.42
2023-02-02T20:19:08.367Z,2.36
2023-02-02T20:29:20.816Z,2.40
2023-02-02T20:39:37.048Z,2.29
2023-02-02T20:49:44.031Z,2.32
2023-02-02T20:59:51.177Z,2.22
2023-02-02T21:09:57.686Z,2.17
2023-02-02T21:20:04.020Z,2.22
2023-02-02T21:30:12.137Z,2.14
2023-02-02T21:40:25.873Z,1.99
2023-02-02T21:50:42.437Z,2.02
2023-02-02T22:00:49.804Z,2.03
2023-02-02T22:10:56.179Z,1.82
2023-02-02T22:21:02.454Z,1.67
2023-02-02T22:31:07.844Z,1.57
2023-02-02T22:41:14.281Z,1.59
2023-02-02T22:51:20.719Z,1.72
2023-02-02T23:01:27.042Z,1.70
2023-02-02T23:11:33.395Z,1.77
2023-02-02T23:21:39.728Z,1.74
2023-02-02T23:31:46.033Z,1.77
2023-02-02T23:41:52.720Z,1.67
2023-02-02T23:51:59.023Z,1.74
